sensor_id;sensor_type;location;lat;lon;timestamp;pressure;altitude;pressure_sealevel;temperature;humidity
24230;BME280;12362;50.004;8.006;2023-02-18T00:00:10;101365.09;;;12.68;100.00
24230;BME280;12362;50.004;8.006;2023-02-18T00:02:36;101367.63;;;12.70;100.00
24230;BME280;12362;50.004;8.006;2023-02-18T00:05:02;101372.09;;;12.67;100.00
24230;BME280;12362;50.004;8.006;2023-02-18T00:07:27;101368.66;;;12.66;100.00
24230;BME280;12362;50.004;8.006;2023-02-18T00:09:53;101368.06;;;12.60;100.00
24230;BME280;12362;50.004;8.006;2023-02-18T00:12:19;101376.84;;;12.57;100.00
24230;BME280;12362;50.004;8.006;2023-02-18T00:14:44;101373.59;;;12.52;100.00
24230;BME280;12362;50.004;8.006;2023-02-18T00:17:09;101371.00;;;12.52;100.00
24230;BME280;12362;50.004;8.006;2023-02-18T00:19:35;101366.88;;;12.47;100.00
24230;BME280;12362;50.004;8.006;2023-02-18T00:22:00;101377.59;;;12.39;100.00
24230;BME280;12362;50.004;8.006;2023-02-18T00:24:26;101371.50;;;12.40;100.00
24230;BME280;12362;50.004;8.006;2023-02-18T00:26:52;101365.97;;;12.48;100.00
24230;BME280;12362;50.004;8.006;2023-02-18T00:29:19;101373.47;;;12.55;100.00
24230;BME280;12362;50.004;8.006;2023-02-18T00:31:46;101375.81;;;12.61;100.00
24230;BME280;12362;50.004;8.006;2023-02-18T00:34:12;101370.19;;;12.71;100.00
24230;BME280;12362;50.004;8.006;2023-02-18T00:36:41;101377.00;;;12.74;100.00
24230;BME280;12362;50.004;8.006;2023-02-18T00:39:08;101373.53;;;12.73;100.00
24230;BME280;12362;50.004;8.006;2023-02-18T00:41:34;101376.34;;;12.69;100.00
24230;BME280;12362;50.004;8.006;2023-02-18T00:44:00;101374.72;;;12.67;100.00
24230;BME280;12362;50.004;8.006;2023-02-18T00:46:28;101387.66;;;12.68;100.00
24230;BME280;12362;50.004;8.006;2023-02-18T00:48:55;101380.00;;;12.65;100.00
24230;BME280;12362;50.004;8.006;2023-02-18T00:51:21;101382.28;;;12.72;100.00
24230;BME280;12362;50.004;8.006;2023-02-18T00:53:47;101383.22;;;12.71;100.00
24230;BME280;12362;50.004;8.006;2023-02-18T00:56:13;101377.41;;;12.65;100.00
24230;BME280;12362;50.004;8.006;2023-02-18T00:58:41;101376.84;;;12.57;100.00
24230;BME280;12362;50.004;8.006;2023-02-18T01:01:08;101379.72;;;12.51;100.00
24230;BME280;12362;50.004;8.006;2023-02-18T01:03:39;101372.69;;;12.53;100.00
24230;BME280;12362;50.004;8.006;2023-02-18T01:06:06;101370.72;;;12.58;100.00
24230;BME280;12362;50.004;8.006;2023-02-18T01:08:33;101369.94;;;12.56;100.00
24230;BME280;12362;50.004;8.006;2023-02-18T01:10:59;101377.00;;;12.54;100.00
24230;BME280;12362;50.004;8.006;2023-02-18T01:13:26;101387.72;;;12.47;100.00
24230;BME280;12362;50.004;8.006;2023-02-18T01:15:51;101383.63;;;12.41;100.00
24230;BME280;12362;50.004;8.006;2023-02-18T01:18:17;101384.25;;;12.46;100.00
24230;BME280;12362;50.004;8.006;2023-02-18T01:20:43;101382.50;;;12.47;100.00
24230;BME280;12362;50.004;8.006;2023-02-18T01:23:10;101373.78;;;12.48;100.00
24230;BME280;12362;50.004;8.006;2023-02-18T01:25:36;101371.94;;;12.50;100.00
24230;BME280;12362;50.004;8.006;2023-02-18T01:28:03;101379.13;;;12.45;100.00
24230;BME280;12362;50.004;8.006;2023-02-18T01:30:29;101368.69;;;12.45;100.00
24230;BME280;12362;50.004;8.006;2023-02-18T01:32:56;101363.59;;;12.42;100.00
24230;BME280;12362;50.004;8.006;2023-02-18T01:35:22;101371.38;;;12.43;100.00
24230;BME280;12362;50.004;8.006;2023-02-18T01:37:48;101371.50;;;12.40;100.00
24230;BME280;12362;50.004;8.006;2023-02-18T01:40:17;101364.00;;;12.33;100.00
24230;BME280;12362;50.004;8.006;2023-02-18T01:42:44;101355.56;;;12.26;100.00
24230;BME280;12362;50.004;8.006;2023-02-18T01:48:10;101347.69;;;12.28;100.00
24230;BME280;12362;50.004;8.006;2023-02-18T01:50:42;101335.66;;;12.25;100.00
24230;BME280;12362;50.004;8.006;2023-02-18T01:53:09;101336.84;;;12.17;100.00
24230;BME280;12362;50.004;8.006;2023-02-18T01:55:36;101331.53;;;12.20;100.00
24230;BME280;12362;50.004;8.006;2023-02-18T01:58:04;101327.34;;;12.16;100.00
24230;BME280;12362;50.004;8.006;2023-02-18T02:00:30;101330.03;;;12.14;100.00
24230;BME280;12362;50.004;8.006;2023-02-18T02:02:57;101336.03;;;12.16;100.00
24230;BME280;12362;50.004;8.006;2023-02-18T02:05:22;101330.69;;;12.19;100.00
24230;BME280;12362;50.004;8.006;2023-02-18T02:07:53;101333.31;;;12.19;100.00
24230;BME280;12362;50.004;8.006;2023-02-18T02:10:19;101325.16;;;12.27;100.00
24230;BME280;12362;50.004;8.006;2023-02-18T02:13:17;101326.13;;;12.24;100.00
24230;BME280;12362;50.004;8.006;2023-02-18T02:15:53;101314.34;;;12.16;100.00
24230;BME280;12362;50.004;8.006;2023-02-18T02:18:46;101308.41;;;12.12;100.00
24230;BME280;12362;50.004;8.006;2023-02-18T02:27:08;101309.69;;;12.02;100.00
24230;BME280;12362;50.004;8.006;2023-02-18T02:35:32;101296.75;;;12.01;100.00
24230;BME280;12362;50.004;8.006;2023-02-18T02:38:21;101299.28;;;12.02;100.00
24230;BME280;12362;50.004;8.006;2023-02-18T02:40:58;101302.78;;;12.01;100.00
24230;BME280;12362;50.004;8.006;2023-02-18T02:43:42;101290.63;;;12.02;100.00
24230;BME280;12362;50.004;8.006;2023-02-18T02:46:18;101290.75;;;11.99;100.00
24230;BME280;12362;50.004;8.006;2023-02-18T02:49:07;101290.63;;;12.02;100.00
24230;BME280;12362;50.004;8.006;2023-02-18T02:52:16;101284.84;;;11.95;100.00
24230;BME280;12362;50.004;8.006;2023-02-18T02:54:44;101291.06;;;11.91;100.00
24230;BME280;12362;50.004;8.006;2023-02-18T03:00:06;101292.63;;;11.95;100.00
24230;BME280;12362;50.004;8.006;2023-02-18T03:03:13;101298.00;;;11.91;100.00
24230;BME280;12362;50.004;8.006;2023-02-18T03:11:24;101288.47;;;11.91;100.00
24230;BME280;12362;50.004;8.006;2023-02-18T03:13:59;101288.19;;;11.97;100.00
24230;BME280;12362;50.004;8.006;2023-02-18T03:16:45;101290.19;;;11.91;100.00
24230;BME280;12362;50.004;8.006;2023-02-18T03:19:32;101291.16;;;11.88;100.00
24230;BME280;12362;50.004;8.006;2023-02-18T03:22:04;101285.25;;;11.85;100.00
24230;BME280;12362;50.004;8.006;2023-02-18T03:24:42;101287.16;;;11.80;100.00
24230;BME280;12362;50.004;8.006;2023-02-18T03:27:17;101287.25;;;11.78;100.00
24230;BME280;12362;50.004;8.006;2023-02-18T03:29:47;101288.03;;;11.80;100.00
24230;BME280;12362;50.004;8.006;2023-02-18T03:32:18;101282.75;;;11.82;100.00
24230;BME280;12362;50.004;8.006;2023-02-18T03:34:50;101290.53;;;11.83;100.00
24230;BME280;12362;50.004;8.006;2023-02-18T03:37:18;101287.06;;;11.83;100.00
24230;BME280;12362;50.004;8.006;2023-02-18T03:39:50;101286.94;;;11.86;100.00
24230;BME280;12362;50.004;8.006;2023-02-18T03:42:17;101283.97;;;11.95;100.00
24230;BME280;12362;50.004;8.006;2023-02-18T03:44:43;101279.56;;;11.97;100.00
24230;BME280;12362;50.004;8.006;2023-02-18T03:47:10;101283.84;;;11.98;100.00
24230;BME280;12362;50.004;8.006;2023-02-18T03:49:36;101288.88;;;12.02;100.00
24230;BME280;12362;50.004;8.006;2023-02-18T03:52:02;101288.69;;;12.07;100.00
24230;BME280;12362;50.004;8.006;2023-02-18T03:54:27;101276.47;;;12.09;100.00
24230;BME280;12362;50.004;8.006;2023-02-18T03:56:53;101270.97;;;12.15;100.00
24230;BME280;12362;50.004;8.006;2023-02-18T03:59:19;101266.84;;;12.11;100.00
24230;BME280;12362;50.004;8.006;2023-02-18T04:01:44;101271.38;;;12.06;100.00
24230;BME280;12362;50.004;8.006;2023-02-18T04:04:10;101262.72;;;12.05;100.00
24230;BME280;12362;50.004;8.006;2023-02-18T04:06:41;101262.72;;;12.05;100.00
24230;BME280;12362;50.004;8.006;2023-02-18T04:09:06;101258.63;;;12.00;100.00
24230;BME280;12362;50.004;8.006;2023-02-18T04:11:38;101261.22;;;12.00;100.00
24230;BME280;12362;50.004;8.006;2023-02-18T04:14:03;101257.72;;;12.01;100.00
24230;BME280;12362;50.004;8.006;2023-02-18T04:16:29;101253.25;;;12.03;100.00
24230;BME280;12362;50.004;8.006;2023-02-18T04:18:54;101249.09;;;11.99;100.00
24230;BME280;12362;50.004;8.006;2023-02-18T04:21:20;101242.44;;;11.92;100.00
24230;BME280;12362;50.004;8.006;2023-02-18T04:23:45;101249.31;;;11.94;100.00
24230;BME280;12362;50.004;8.006;2023-02-18T04:26:11;101247.94;;;11.84;100.00
24230;BME280;12362;50.004;8.006;2023-02-18T04:28:37;101242.75;;;11.84;100.00
24230;BME280;12362;50.004;8.006;2023-02-18T04:31:02;101237.69;;;11.81;100.00
24230;BME280;12362;50.004;8.006;2023-02-18T04:33:28;101242.03;;;11.81;100.00
24230;BME280;12362;50.004;8.006;2023-02-18T04:35:53;101239.44;;;11.81;100.00
24230;BME280;12362;50.004;8.006;2023-02-18T04:38:19;101256.22;;;11.74;100.00
24230;BME280;12362;50.004;8.006;2023-02-18T04:40:44;101252.94;;;11.69;100.00
24230;BME280;12362;50.004;8.006;2023-02-18T04:43:10;101254.91;;;11.63;100.00
24230;BME280;12362;50.004;8.006;2023-02-18T04:45:35;101257.53;;;11.63;100.00
24230;BME280;12362;50.004;8.006;2023-02-18T04:48:01;101253.41;;;11.57;100.00
24230;BME280;12362;50.004;8.006;2023-02-18T04:50:26;101260.50;;;11.54;100.00
24230;BME280;12362;50.004;8.006;2023-02-18T04:52:52;101259.75;;;11.50;100.00
24230;BME280;12362;50.004;8.006;2023-02-18T04:55:17;101251.84;;;11.52;100.00
24230;BME280;12362;50.004;8.006;2023-02-18T04:57:43;101256.53;;;11.44;100.00
24230;BME280;12362;50.004;8.006;2023-02-18T05:00:09;101244.69;;;11.37;100.00
24230;BME280;12362;50.004;8.006;2023-02-18T05:02:38;101235.94;;;11.38;100.00
24230;BME280;12362;50.004;8.006;2023-02-18T05:05:03;101243.75;;;11.38;100.00
24230;BME280;12362;50.004;8.006;2023-02-18T05:07:30;101255.72;;;11.42;100.00
24230;BME280;12362;50.004;8.006;2023-02-18T05:09:56;101254.22;;;11.36;100.00
24230;BME280;12362;50.004;8.006;2023-02-18T05:12:21;101261.03;;;11.39;100.00
24230;BME280;12362;50.004;8.006;2023-02-18T05:14:47;101270.69;;;11.37;100.00
24230;BME280;12362;50.004;8.006;2023-02-18T05:17:12;101263.78;;;11.36;100.00
24230;BME280;12362;50.004;8.006;2023-02-18T05:19:38;101258.63;;;11.34;100.00
24230;BME280;12362;50.004;8.006;2023-02-18T05:22:03;101250.09;;;11.31;100.00
24230;BME280;12362;50.004;8.006;2023-02-18T05:24:29;101250.28;;;11.26;100.00
24230;BME280;12362;50.004;8.006;2023-02-18T05:26:54;101242.47;;;11.26;100.00
24230;BME280;12362;50.004;8.006;2023-02-18T05:29:20;101245.13;;;11.25;100.00
24230;BME280;12362;50.004;8.006;2023-02-18T05:31:45;101253.84;;;11.24;100.00
24230;BME280;12362;50.004;8.006;2023-02-18T05:34:11;101241.97;;;11.17;100.00
24230;BME280;12362;50.004;8.006;2023-02-18T05:36:48;101240.94;;;11.21;100.00
24230;BME280;12362;50.004;8.006;2023-02-18T05:39:14;101251.63;;;11.13;100.00
24230;BME280;12362;50.004;8.006;2023-02-18T05:41:40;101250.66;;;11.16;100.00
24230;BME280;12362;50.004;8.006;2023-02-18T05:44:06;101248.19;;;11.13;100.00
24230;BME280;12362;50.004;8.006;2023-02-18T05:46:50;101242.38;;;11.06;100.00
24230;BME280;12362;50.004;8.006;2023-02-18T05:49:16;101248.47;;;11.05;100.00
24230;BME280;12362;50.004;8.006;2023-02-18T05:51:41;101236.44;;;11.03;100.00
24230;BME280;12362;50.004;8.006;2023-02-18T05:54:06;101238.19;;;11.02;100.00
24230;BME280;12362;50.004;8.006;2023-02-18T05:56:32;101228.31;;;10.89;100.00
24230;BME280;12362;50.004;8.006;2023-02-18T05:58:57;101219.28;;;10.99;100.00
24230;BME280;12362;50.004;8.006;2023-02-18T06:01:23;101224.41;;;11.00;100.00
24230;BME280;12362;50.004;8.006;2023-02-18T06:03:48;101214.00;;;11.00;100.00
24230;BME280;12362;50.004;8.006;2023-02-18T06:06:20;101206.53;;;11.14;100.00
24230;BME280;12362;50.004;8.006;2023-02-18T06:08:45;101214.84;;;11.24;100.00
24230;BME280;12362;50.004;8.006;2023-02-18T06:11:11;101207.69;;;11.29;100.00
24230;BME280;12362;50.004;8.006;2023-02-18T06:13:36;101208.38;;;11.34;100.00
24230;BME280;12362;50.004;8.006;2023-02-18T06:16:02;101210.91;;;11.35;100.00
24230;BME280;12362;50.004;8.006;2023-02-18T06:18:28;101210.09;;;11.35;100.00
24230;BME280;12362;50.004;8.006;2023-02-18T06:20:53;101210.72;;;11.40;100.00
24230;BME280;12362;50.004;8.006;2023-02-18T06:23:19;101215.88;;;11.41;100.00
24230;BME280;12362;50.004;8.006;2023-02-18T06:25:47;101222.47;;;11.50;100.00
24230;BME280;12362;50.004;8.006;2023-02-18T06:28:13;101221.09;;;11.41;100.00
24230;BME280;12362;50.004;8.006;2023-02-18T06:30:38;101216.00;;;11.38;100.00
24230;BME280;12362;50.004;8.006;2023-02-18T06:33:04;101218.41;;;11.43;100.00
24230;BME280;12362;50.004;8.006;2023-02-18T06:35:29;101221.81;;;11.45;100.00
24230;BME280;12362;50.004;8.006;2023-02-18T06:37:55;101219.13;;;11.46;100.00
24230;BME280;12362;50.004;8.006;2023-02-18T06:40:20;101216.63;;;11.45;100.00
24230;BME280;12362;50.004;8.006;2023-02-18T06:42:46;101218.31;;;11.46;100.00
24230;BME280;12362;50.004;8.006;2023-02-18T06:45:12;101207.22;;;11.41;100.00
24230;BME280;12362;50.004;8.006;2023-02-18T06:47:37;101204.88;;;11.35;100.00
24230;BME280;12362;50.004;8.006;2023-02-18T06:50:04;101212.53;;;11.38;100.00
24230;BME280;12362;50.004;8.006;2023-02-18T06:52:30;101213.47;;;11.37;100.00
24230;BME280;12362;50.004;8.006;2023-02-18T06:54:57;101208.69;;;11.26;100.00
24230;BME280;12362;50.004;8.006;2023-02-18T06:57:23;101207.09;;;11.22;100.00
24230;BME280;12362;50.004;8.006;2023-02-18T06:59:48;101206.28;;;11.20;100.00
24230;BME280;12362;50.004;8.006;2023-02-18T07:02:14;101202.13;;;11.16;100.00
24230;BME280;12362;50.004;8.006;2023-02-18T07:04:39;101207.28;;;11.18;100.00
24230;BME280;12362;50.004;8.006;2023-02-18T07:07:05;101194.19;;;11.19;100.00
24230;BME280;12362;50.004;8.006;2023-02-18T07:09:30;101194.38;;;11.15;100.00
24230;BME280;12362;50.004;8.006;2023-02-18T07:11:56;101199.28;;;11.22;100.00
24230;BME280;12362;50.004;8.006;2023-02-18T07:14:21;101197.47;;;11.24;100.00
24230;BME280;12362;50.004;8.006;2023-02-18T07:16:48;101203.28;;;11.31;100.00
24230;BME280;12362;50.004;8.006;2023-02-18T07:19:16;101210.41;;;11.26;100.00
24230;BME280;12362;50.004;8.006;2023-02-18T07:21:42;101197.31;;;11.29;100.00
24230;BME280;12362;50.004;8.006;2023-02-18T07:24:08;101184.69;;;11.41;100.00
24230;BME280;12362;50.004;8.006;2023-02-18T07:29:27;101187.03;;;11.47;100.00
24230;BME280;12362;50.004;8.006;2023-02-18T07:31:53;101182.84;;;11.43;100.00
24230;BME280;12362;50.004;8.006;2023-02-18T07:34:34;101177.66;;;11.43;100.00
24230;BME280;12362;50.004;8.006;2023-02-18T07:37:04;101192.22;;;11.47;100.00
24230;BME280;12362;50.004;8.006;2023-02-18T07:40:03;101180.00;;;11.49;100.00
24230;BME280;12362;50.004;8.006;2023-02-18T07:45:22;101190.50;;;11.48;100.00
24230;BME280;12362;50.004;8.006;2023-02-18T07:47:53;101199.06;;;11.50;100.00
24230;BME280;12362;50.004;8.006;2023-02-18T07:50:26;101174.59;;;11.55;100.00
24230;BME280;12362;50.004;8.006;2023-02-18T07:53:06;101177.06;;;11.58;100.00
24230;BME280;12362;50.004;8.006;2023-02-18T07:56:01;101164.97;;;11.57;100.00
24230;BME280;12362;50.004;8.006;2023-02-18T08:01:52;101147.25;;;11.67;100.00
24230;BME280;12362;50.004;8.006;2023-02-18T08:04:38;101155.75;;;11.70;100.00
24230;BME280;12362;50.004;8.006;2023-02-18T08:07:24;101147.66;;;11.77;100.00
24230;BME280;12362;50.004;8.006;2023-02-18T08:10:08;101143.88;;;11.84;100.00
24230;BME280;12362;50.004;8.006;2023-02-18T08:12:33;101156.34;;;11.77;100.00
24230;BME280;12362;50.004;8.006;2023-02-18T08:15:17;101145.56;;;11.85;100.00
24230;BME280;12362;50.004;8.006;2023-02-18T08:17:50;101138.75;;;11.83;100.00
24230;BME280;12362;50.004;8.006;2023-02-18T08:20:30;101146.44;;;11.86;100.00
24230;BME280;12362;50.004;8.006;2023-02-18T08:23:27;101148.31;;;11.82;100.00
24230;BME280;12362;50.004;8.006;2023-02-18T08:26:32;101152.78;;;11.79;100.00
24230;BME280;12362;50.004;8.006;2023-02-18T08:29:28;101150.13;;;11.80;100.00
24230;BME280;12362;50.004;8.006;2023-02-18T08:32:30;101151.75;;;11.83;100.00
24230;BME280;12362;50.004;8.006;2023-02-18T08:35:04;101155.84;;;11.88;100.00
24230;BME280;12362;50.004;8.006;2023-02-18T08:37:36;101167.25;;;11.86;100.00
24230;BME280;12362;50.004;8.006;2023-02-18T08:40:14;101160.25;;;11.86;100.00
24230;BME280;12362;50.004;8.006;2023-02-18T08:42:51;101162.75;;;11.89;100.00
24230;BME280;12362;50.004;8.006;2023-02-18T08:48:45;101174.41;;;12.01;100.00
24230;BME280;12362;50.004;8.006;2023-02-18T08:54:23;101162.22;;;12.01;100.00
24230;BME280;12362;50.004;8.006;2023-02-18T08:56:56;101170.75;;;12.05;100.00
24230;BME280;12362;50.004;8.006;2023-02-18T08:59:26;101163.66;;;12.08;100.00
24230;BME280;12362;50.004;8.006;2023-02-18T09:02:09;101146.91;;;11.95;100.00
24230;BME280;12362;50.004;8.006;2023-02-18T09:05:01;101152.84;;;11.97;100.00
24230;BME280;12362;50.004;8.006;2023-02-18T09:07:40;101152.09;;;11.95;100.00
24230;BME280;12362;50.004;8.006;2023-02-18T09:10:36;101148.19;;;12.05;100.00
24230;BME280;12362;50.004;8.006;2023-02-18T09:13:45;101159.69;;;12.20;100.00
24230;BME280;12362;50.004;8.006;2023-02-18T09:16:30;101165.72;;;12.20;100.00
24230;BME280;12362;50.004;8.006;2023-02-18T09:19:21;101178.72;;;12.22;100.00
24230;BME280;12362;50.004;8.006;2023-02-18T09:21:55;101174.09;;;12.28;100.00
24230;BME280;12362;50.004;8.006;2023-02-18T09:24:39;101172.72;;;12.20;100.00
24230;BME280;12362;50.004;8.006;2023-02-18T09:27:10;101163.88;;;12.24;100.00
24230;BME280;12362;50.004;8.006;2023-02-18T09:29:45;101179.03;;;12.14;100.00
24230;BME280;12362;50.004;8.006;2023-02-18T09:32:26;101177.41;;;12.12;100.00
24230;BME280;12362;50.004;8.006;2023-02-18T09:35:14;101174.59;;;12.16;100.00
24230;BME280;12362;50.004;8.006;2023-02-18T09:37:41;101178.03;;;12.17;100.00
24230;BME280;12362;50.004;8.006;2023-02-18T09:40:25;101175.31;;;12.20;100.00
24230;BME280;12362;50.004;8.006;2023-02-18T09:43:06;101183.25;;;12.17;100.00
24230;BME280;12362;50.004;8.006;2023-02-18T09:46:27;101183.56;;;12.09;100.00
24230;BME280;12362;50.004;8.006;2023-02-18T09:49:15;101188.47;;;12.17;100.00
24230;BME280;12362;50.004;8.006;2023-02-18T09:51:48;101196.16;;;12.20;100.00
24230;BME280;12362;50.004;8.006;2023-02-18T09:54:26;101190.03;;;12.21;100.00
24230;BME280;12362;50.004;8.006;2023-02-18T09:56:54;101192.94;;;12.13;100.00
24230;BME280;12362;50.004;8.006;2023-02-18T09:59:27;101182.63;;;12.12;100.00
24230;BME280;12362;50.004;8.006;2023-02-18T10:01:58;101187.03;;;12.10;100.00
24230;BME280;12362;50.004;8.006;2023-02-18T10:04:58;101180.72;;;12.15;100.00
24230;BME280;12362;50.004;8.006;2023-02-18T10:07:29;101188.25;;;12.21;100.00
24230;BME280;12362;50.004;8.006;2023-02-18T10:09:56;101184.22;;;12.14;100.00
24230;BME280;12362;50.004;8.006;2023-02-18T10:12:25;101186.06;;;12.12;100.00
24230;BME280;12362;50.004;8.006;2023-02-18T10:14:57;101185.53;;;12.24;100.00
24230;BME280;12362;50.004;8.006;2023-02-18T10:17:26;101187.63;;;12.16;100.00
24230;BME280;12362;50.004;8.006;2023-02-18T10:19:55;101164.59;;;12.07;100.00
24230;BME280;12362;50.004;8.006;2023-02-18T10:22:23;101173.25;;;12.08;100.00
24230;BME280;12362;50.004;8.006;2023-02-18T10:25:07;101183.06;;;12.21;100.00
24230;BME280;12362;50.004;8.006;2023-02-18T10:27:36;101178.13;;;12.15;100.00
24230;BME280;12362;50.004;8.006;2023-02-18T10:32:43;101176.66;;;12.08;100.00
24230;BME280;12362;50.004;8.006;2023-02-18T10:35:38;101174.53;;;12.18;100.00
24230;BME280;12362;50.004;8.006;2023-02-18T10:44:09;101180.06;;;12.30;100.00
24230;BME280;12362;50.004;8.006;2023-02-18T10:52:17;101173.16;;;12.29;100.00
24230;BME280;12362;50.004;8.006;2023-02-18T10:55:13;101174.91;;;12.29;100.00
24230;BME280;12362;50.004;8.006;2023-02-18T11:01:18;101161.38;;;12.21;100.00
24230;BME280;12362;50.004;8.006;2023-02-18T11:03:47;101155.41;;;12.19;100.00
24230;BME280;12362;50.004;8.006;2023-02-18T11:06:39;101160.59;;;12.19;100.00
24230;BME280;12362;50.004;8.006;2023-02-18T11:09:39;101160.16;;;12.29;100.00
24230;BME280;12362;50.004;8.006;2023-02-18T11:12:00;101145.09;;;12.36;100.00
24230;BME280;12362;50.004;8.006;2023-02-18T11:14:47;101138.81;;;12.40;100.00
24230;BME280;12362;50.004;8.006;2023-02-18T11:17:20;101138.50;;;12.47;100.00
24230;BME280;12362;50.004;8.006;2023-02-18T11:19:57;101138.38;;;12.50;100.00
24230;BME280;12362;50.004;8.006;2023-02-18T11:22:28;101134.16;;;12.48;100.00
24230;BME280;12362;50.004;8.006;2023-02-18T11:24:56;101130.56;;;12.50;100.00
24230;BME280;12362;50.004;8.006;2023-02-18T11:30:04;101120.91;;;12.52;100.00
24230;BME280;12362;50.004;8.006;2023-02-18T11:32:33;101115.06;;;12.66;100.00
24230;BME280;12362;50.004;8.006;2023-02-18T11:35:02;101112.09;;;12.73;100.00
24230;BME280;12362;50.004;8.006;2023-02-18T11:37:31;101115.38;;;12.78;100.00
24230;BME280;12362;50.004;8.006;2023-02-18T11:39:58;101115.75;;;12.69;100.00
24230;BME280;12362;50.004;8.006;2023-02-18T11:42:25;101108.28;;;12.62;100.00
24230;BME280;12362;50.004;8.006;2023-02-18T11:45:00;101098.38;;;12.51;100.00
24230;BME280;12362;50.004;8.006;2023-02-18T11:47:33;101107.25;;;12.66;100.00
24230;BME280;12362;50.004;8.006;2023-02-18T11:50:20;101102.03;;;12.66;100.00
24230;BME280;12362;50.004;8.006;2023-02-18T11:52:49;101088.31;;;12.80;100.00
24230;BME280;12362;50.004;8.006;2023-02-18T11:55:23;101083.00;;;12.82;100.00
24230;BME280;12362;50.004;8.006;2023-02-18T11:58:03;101078.16;;;12.93;100.00
24230;BME280;12362;50.004;8.006;2023-02-18T12:00:48;101071.88;;;12.78;100.00
24230;BME280;12362;50.004;8.006;2023-02-18T12:03:27;101065.28;;;12.71;100.00
24230;BME280;12362;50.004;8.006;2023-02-18T12:05:57;101049.78;;;12.87;100.00
24230;BME280;12362;50.004;8.006;2023-02-18T12:08:27;101051.88;;;12.79;100.00
24230;BME280;12362;50.004;8.006;2023-02-18T12:11:29;101049.06;;;12.83;100.00
24230;BME280;12362;50.004;8.006;2023-02-18T12:13:57;101049.22;;;12.62;100.00
24230;BME280;12362;50.004;8.006;2023-02-18T12:16:43;101048.66;;;12.74;100.00
24230;BME280;12362;50.004;8.006;2023-02-18T12:19:20;101039.47;;;12.84;100.00
24230;BME280;12362;50.004;8.006;2023-02-18T12:22:21;101026.75;;;12.78;100.00
24230;BME280;12362;50.004;8.006;2023-02-18T12:25:16;101039.06;;;12.93;100.00
24230;BME280;12362;50.004;8.006;2023-02-18T12:27:55;101031.25;;;12.93;100.00
24230;BME280;12362;50.004;8.006;2023-02-18T12:30:55;101032.28;;;13.24;100.00
24230;BME280;12362;50.004;8.006;2023-02-18T12:38:57;101021.78;;;13.43;100.00
24230;BME280;12362;50.004;8.006;2023-02-18T12:41:37;101009.31;;;13.81;100.00
24230;BME280;12362;50.004;8.006;2023-02-18T12:57:55;101003.97;;;14.63;100.00
24230;BME280;12362;50.004;8.006;2023-02-18T13:09:16;100991.31;;;15.31;100.00
24230;BME280;12362;50.004;8.006;2023-02-18T13:12:03;100991.06;;;15.05;100.00
24230;BME280;12362;50.004;8.006;2023-02-18T13:14:33;101004.56;;;15.28;100.00
24230;BME280;12362;50.004;8.006;2023-02-18T13:17:07;100994.56;;;15.05;100.00
24230;BME280;12362;50.004;8.006;2023-02-18T13:19:55;100982.53;;;15.17;100.00
24230;BME280;12362;50.004;8.006;2023-02-18T13:22:28;100983.97;;;15.65;100.00
24230;BME280;12362;50.004;8.006;2023-02-18T13:24:56;100993.94;;;15.16;100.00
24230;BME280;12362;50.004;8.006;2023-02-18T13:27:28;100986.84;;;14.73;100.00
24230;BME280;12362;50.004;8.006;2023-02-18T13:39:49;101011.06;;;13.81;100.00
24230;BME280;12362;50.004;8.006;2023-02-18T13:42:44;101012.13;;;13.62;100.00
24230;BME280;12362;50.004;8.006;2023-02-18T13:45:32;101016.19;;;13.67;100.00
24230;BME280;12362;50.004;8.006;2023-02-18T13:48:01;101029.63;;;13.60;100.00
24230;BME280;12362;50.004;8.006;2023-02-18T13:50:32;101025.22;;;13.60;100.00
24230;BME280;12362;50.004;8.006;2023-02-18T13:56:09;101016.34;;;13.64;100.00
24230;BME280;12362;50.004;8.006;2023-02-18T14:11:57;101030.31;;;13.63;100.00
24230;BME280;12362;50.004;8.006;2023-02-18T14:14:39;101033.59;;;13.66;100.00
24230;BME280;12362;50.004;8.006;2023-02-18T14:19:55;101046.44;;;13.20;100.00
24230;BME280;12362;50.004;8.006;2023-02-18T14:25:03;101032.75;;;13.15;100.00
24230;BME280;12362;50.004;8.006;2023-02-18T14:27:29;101041.50;;;13.14;100.00
24230;BME280;12362;50.004;8.006;2023-02-18T14:32:39;101044.81;;;13.35;100.00
24230;BME280;12362;50.004;8.006;2023-02-18T14:51:23;101057.19;;;12.96;100.00
24230;BME280;12362;50.004;8.006;2023-02-18T14:53:50;101059.00;;;12.75;100.00
24230;BME280;12362;50.004;8.006;2023-02-18T14:56:18;101065.41;;;12.87;100.00
24230;BME280;12362;50.004;8.006;2023-02-18T14:58:51;101063.72;;;12.68;100.00
24230;BME280;12362;50.004;8.006;2023-02-18T15:01:26;101061.91;;;12.69;100.00
24230;BME280;12362;50.004;8.006;2023-02-18T15:03:53;101051.47;;;12.69;100.00
24230;BME280;12362;50.004;8.006;2023-02-18T15:06:34;101057.69;;;12.67;100.00
24230;BME280;12362;50.004;8.006;2023-02-18T15:09:18;101074.06;;;12.69;100.00
24230;BME280;12362;50.004;8.006;2023-02-18T15:12:07;101070.72;;;12.67;100.00
24230;BME280;12362;50.004;8.006;2023-02-18T15:14:41;101058.44;;;12.69;100.00
24230;BME280;12362;50.004;8.006;2023-02-18T15:17:14;101059.56;;;12.64;100.00
24230;BME280;12362;50.004;8.006;2023-02-18T15:19:48;101061.47;;;12.60;100.00
24230;BME280;12362;50.004;8.006;2023-02-18T15:22:24;101048.22;;;12.65;100.00
24230;BME280;12362;50.004;8.006;2023-02-18T15:24:52;101063.81;;;12.66;100.00